Latest Coastal Weather Observations for Eucla

IDS60701

Issued at 2:11 am CDT Saturday 31 January 2015 (issued every 10 minutes, with the page automatically refreshed every 10 minutes)

About coastal observations | Map of coastal stations | Coastal observations for SA | Marine services | Other Formats
Station Details ID: 011003 Name: EUCLA Lat: -31.68 Lon: 128.90 Height: 93.1 m
Data from the previous 72 hours. | See also: Recent months at Eucla
Date/Time
CDT
Temp

°C
Wind Pressure Rain
since 9am
mm
Weather Cloud Vis
km
Sea
Height
m
Swell
Dir
 
Speed
knots
Gust
knots
hPa Trend Height
m
Period
s
Dir
31/02:00am 18.6 SE 9 14 1014.7 - 0.0 - - - - - - -
31/01:30am 18.7 SE 8 14 1015.0 - 0.0 - - - - - - -
31/01:00am 18.9 ESE 9 14 1015.3 - 0.0 - - - - - - -
31/12:30am 19.0 SE 8 11 1015.5 - 0.0 - - - - - - -
31/12:00am 18.9 SE 9 16 1015.3 - 0.0 - - - - - - -
 
Date/Time
CDT
Temp

°C
Wind Pressure Rain
since 9am
mm
Weather Cloud Vis
km
Sea
Height
m
Swell
Dir
 
Speed
knots
Gust
knots
hPa Trend Height
m
Period
s
Dir
30/11:30pm 19.1 SE 10 16 1015.1 - 0.0 - - - - - - -
30/11:00pm 19.0 SE 11 15 1015.3 - 0.0 - - - - - - -
30/10:30pm 19.4 SE 11 17 1015.2 - 0.0 - - - - - - -
30/10:00pm 19.5 SE 11 17 1015.1 - 0.0 - - - - - - -
30/09:30pm 19.7 SE 11 18 1014.8 - 0.0 - - - - - - -
30/09:00pm 20.0 SE 13 18 1014.6 - 0.0 - - - - - - -
30/08:30pm 20.2 SE 12 18 1014.5 - 0.0 - - - - - - -
30/08:00pm 20.3 SE 13 21 1014.2 - 0.0 - - - - - - -
30/07:30pm 21.0 SE 14 19 1014.0 - 0.0 - - - - - - -
30/07:00pm 22.0 SSE 13 19 1013.8 - 0.0 - - - - - - -
30/06:30pm 21.9 SSE 13 20 1013.8 - 0.0 - - - - - - -
30/06:00pm 22.7 SSE 13 19 1013.6 - 0.0 - - - - - - -
30/05:30pm 23.3 SSE 13 20 1013.8 - 0.0 Haze Partly cloudy 25 - - - -
30/05:00pm 23.3 SSE 12 17 1013.9 - 0.0 - - - - - - -
30/04:30pm 23.2 SE 12 18 1014.0 - 0.0 - - - - - - -
30/04:00pm 24.6 SSE 12 17 1014.1 - 0.0 - - - - - - -
30/03:30pm 24.5 SSE 11 17 1014.2 - 0.0 - - - - - - -
30/03:00pm 25.0 SE 12 19 1014.3 - 0.0 - - - - - - -
30/02:30pm 24.0 SE 10 16 1014.5 - 0.0 - - - - - - -
30/02:00pm 24.1 SSE 10 17 1014.8 - 0.0 - - - - - - -
30/01:30pm 23.7 SSE 10 15 1015.1 - 0.0 - - - - - - -
30/01:00pm 23.9 SSE 9 16 1015.3 - 0.0 - - - - - - -
30/12:30pm 23.5 SSE 9 16 1015.4 - 0.0 - - - - - - -
30/12:00pm 23.5 SSE 8 14 1015.7 - 0.0 - - - - - - -
30/11:30am 23.6 SE 8 11 1015.7 - 0.0 Fine Mostly clear 40 - - - -
30/11:00am 22.6 SE 7 10 1015.5 - 0.0 - - - - - - -
30/10:30am 22.1 SE 7 13 1015.3 - 0.0 - - - - - - -
30/10:00am 21.4 ESE 8 12 1015.1 - 0.0 - - - - - - -
30/09:30am 20.8 ESE 9 13 1015.3 - 0.0 - - - - - - -
30/09:00am 20.4 ESE 9 13 1014.9 - 0.0 - - - - - - -
30/08:30am 19.5 ESE 6 10 1014.7 - 0.0 - - - - - - -
30/08:00am 17.2 NE 4 5 1014.5 - 0.0 - - - - - - -
30/07:30am 17.4 E 5 7 1014.2 - 0.0 - - - - - - -
30/07:00am 17.4 E 6 8 1013.9 - 0.0 - - - - - - -
30/06:30am 17.6 ESE 6 10 1013.6 - 0.0 - - - - - - -
30/06:00am 17.5 ESE 7 10 1013.4 - 0.0 - - - - - - -
30/05:30am 17.9 ESE 8 12 1013.4 - 0.0 - - - - - - -
30/05:00am 18.2 ESE 8 12 1013.5 - 0.0 - - - - - - -
30/04:30am 18.2 ESE 8 11 1013.5 - 0.0 - - - - - - -
30/04:00am 18.2 ESE 8 14 1013.6 - 0.0 - - - - - - -
30/03:30am 18.4 ESE 8 13 1013.6 - 0.0 - - - - - - -
30/03:00am 18.4 ESE 10 17 1013.8 - 0.0 - - - - - - -
30/02:30am 18.4 ESE 9 14 1013.8 - 0.0 - - - - - - -
30/02:00am 18.3 ESE 9 14 1013.8 - 0.0 - - - - - - -
30/01:30am 18.3 ESE 8 14 1014.0 - 0.0 - - - - - - -
30/01:00am 18.1 ESE 8 11 1014.2 - 0.0 - - - - - - -
30/12:30am 18.2 ESE 7 12 1014.2 - 0.0 - - - - - - -
30/12:00am 18.5 ESE 9 14 1014.2 - 0.0 - - - - - - -
 
Date/Time
CDT
Temp

°C
Wind Pressure Rain
since 9am
mm
Weather Cloud Vis
km
Sea
Height
m
Swell
Dir
 
Speed
knots
Gust
knots
hPa Trend Height
m
Period
s
Dir
29/11:30pm 18.5 ESE 10 15 1014.4 - 0.0 - - - - - - -
29/11:00pm 18.5 ESE 10 14 1014.4 - 0.0 - - - - - - -
29/10:30pm 18.7 SE 9 14 1014.3 - 0.0 - - - - - - -
29/10:00pm 18.6 ESE 10 14 1014.1 - 0.0 - - - - - - -
29/09:30pm 18.9 ESE 10 15 1013.9 - 0.0 - - - - - - -
29/09:00pm 19.1 ESE 11 16 1013.8 - 0.0 - - - - - - -
29/08:30pm 19.6 ESE 11 16 1013.7 - 0.0 - - - - - - -
29/08:00pm 20.4 ESE 13 20 1013.5 - 0.0 - - - - - - -
29/07:30pm 20.6 ESE 14 19 1013.4 - 0.0 - - - - - - -
29/07:00pm 21.4 ESE 14 20 1013.2 - 0.0 - - - - - - -
29/06:30pm 21.7 ESE 13 19 1013.3 - 0.0 - - - - - - -
29/06:00pm 21.6 ESE 15 22 1013.4 - 0.0 - - - - - - -
29/05:30pm 22.0 ESE 15 21 1013.4 - 0.0 Haze Mostly clear 25 - - - -
29/05:00pm 22.6 ESE 16 22 1013.4 - 0.0 - - - - - - -
29/04:30pm 22.6 ESE 14 20 1013.7 - 0.0 - - - - - - -
29/04:00pm 22.3 ESE 15 22 1014.0 - 0.0 - - - - - - -
29/03:30pm 23.0 ESE 13 22 1014.2 - 0.0 - - - - - - -
29/03:00pm 23.0 ESE 14 20 1014.7 - 0.0 - - - - - - -
29/02:30pm 22.9 ESE 14 21 1015.1 - 0.0 - - - - - - -
29/02:00pm 23.4 ESE 15 21 1015.1 - 0.0 - - - - - - -
29/01:30pm 22.5 ESE 14 21 1015.4 - 0.0 - - - - - - -
29/01:00pm 23.4 ESE 14 20 1015.6 - 0.0 - - - - - - -
29/12:30pm 23.0 ESE 13 20 1015.9 - 0.0 - - - - - - -
29/12:00pm 22.5 ESE 13 20 1016.0 - 0.0 - - - - - - -
29/11:30am 21.9 ESE 11 18 1015.9 - 0.0 Haze Mostly clear 25 - - - -
29/11:00am 22.0 E 11 18 1016.0 - 0.0 - - - - - - -
29/10:30am 21.9 ESE 12 18 1016.0 - 0.0 - - - - - - -
29/10:00am 21.1 E 11 17 1015.9 - 0.0 - - - - - - -
29/09:30am 20.9 E 10 17 1015.7 - 0.0 - - - - - - -
29/09:00am 20.1 E 11 17 1015.4 - 0.0 - - - - - - -
29/08:30am 19.2 E 8 14 1015.1 - 0.0 - - - - - - -
29/08:00am 18.4 E 8 13 1014.7 - 0.0 - - - - - - -
29/07:30am 17.5 E 10 14 1014.1 - 0.0 - - - - - - -
29/07:00am 17.2 E 9 16 1013.8 - 0.0 - - - - - - -
29/06:30am 17.1 E 8 12 1013.8 - 0.0 - - - - - - -
29/06:00am 17.3 E 9 14 1013.8 - 0.0 - - - - - - -
29/05:30am 17.2 E 8 14 1013.8 - 0.0 - - - - - - -
29/05:00am 17.1 ESE 10 17 1013.5 - 0.0 - - - - - - -
29/04:30am 17.1 ESE 9 14 1014.0 - 0.0 - - - - - - -
29/04:00am 17.1 E 9 13 1014.3 - 0.0 - - - - - - -
29/03:30am 17.0 E 8 12 1014.6 - 0.0 - - - - - - -
29/03:00am 17.4 ESE 8 11 1014.9 - 0.0 - - - - - - -
29/02:30am 17.5 ESE 8 14 1015.0 - 0.0 - - - - - - -
29/02:00am 17.9 E 7 13 1015.2 - 0.0 - - - - - - -
29/01:30am 17.7 ESE 10 16 1015.3 - 0.0 - - - - - - -
29/01:00am 17.7 ESE 10 15 1015.5 - 0.0 - - - - - - -
29/12:30am 18.0 E 8 14 1015.8 - 0.0 - - - - - - -
29/12:00am 17.9 ESE 11 19 1016.1 - 0.0 - - - - - - -
 
Date/Time
CDT
Temp

°C
Wind Pressure Rain
since 9am
mm
Weather Cloud Vis
km
Sea
Height
m
Swell
Dir
 
Speed
knots
Gust
knots
hPa Trend Height
m
Period
s
Dir
28/11:30pm 17.9 ESE 11 17 1016.2 - 0.0 - - - - - - -
28/11:00pm 18.3 ESE 9 16 1016.3 - 0.0 - - - - - - -
28/10:30pm 18.1 ESE 12 19 1016.0 - 0.0 - - - - - - -
28/10:00pm 18.1 ESE 11 17 1016.0 - 0.0 - - - - - - -
28/09:30pm 18.4 ESE 10 17 1016.0 - 0.0 - - - - - - -
28/09:00pm 18.6 ESE 13 19 1015.8 - 0.0 - - - - - - -
28/08:30pm 18.9 ESE 12 19 1015.6 - 0.0 - - - - - - -
28/08:00pm 19.1 ESE 14 21 1015.4 - 0.0 - - - - - - -
28/07:30pm 19.6 ESE 15 22 1015.1 - 0.0 - - - - - - -
28/07:00pm 20.3 ESE 16 23 1014.9 - 0.0 - - - - - - -
28/06:30pm 21.1 ESE 15 22 1015.0 - 0.0 - - - - - - -
28/06:00pm 20.7 ESE 14 21 1015.3 - 0.0 - - - - - - -
28/05:30pm 21.7 ESE 15 22 1015.5 - 0.0 Haze Mostly clear 25 - - - -
28/05:01pm 21.9 E 15 25 1015.5 - 0.0 - - - - - - -
28/05:00pm 22.0 E 14 25 1015.5 - 0.0 - - - - - - -
28/04:40pm 22.3 ESE 15 25 1015.6 - 0.0 - - - - - - -
28/04:30pm 21.9 ESE 16 24 1015.6 - 0.0 - - - - - - -
28/04:00pm 22.0 ESE 15 23 1015.6 - 0.0 - - - - - - -
28/03:42pm 21.9 ESE 15 25 1015.9 - 0.0 - - - - - - -
28/03:30pm 22.3 ESE 16 23 1015.9 - 0.0 - - - - - - -
28/03:00pm 22.0 ESE 16 22 1016.3 - 0.0 - - - - - - -
28/02:30pm 22.9 ESE 16 23 1016.7 - 0.0 - - - - - - -
28/02:00pm 22.2 ESE 15 23 1016.9 - 0.0 - - - - - - -
28/01:30pm 22.4 ESE 14 22 1017.2 - 0.0 - - - - - - -
28/01:00pm 22.4 ESE 14 21 1017.1 - 0.0 - - - - - - -
28/12:30pm 22.3 ESE 15 22 1017.1 - 0.0 - - - - - - -
28/12:00pm 22.2 ESE 13 22 1017.4 - 0.0 - - - - - - -
28/11:30am 21.8 ESE 13 20 1017.5 - 0.0 Fine Mostly clear 40 - - - -
28/11:00am 21.3 ESE 14 20 1017.3 - 0.0 - - - - - - -
28/10:30am 21.1 E 12 19 1017.4 - 0.0 - - - - - - -
28/10:00am 20.4 E 9 15 1017.3 - 0.0 - - - - - - -
28/09:30am 20.2 E 11 18 1017.3 - 0.0 - - - - - - -
28/09:00am 20.0 E 12 18 1017.0 - 0.0 - - - - - - -
28/08:30am 19.1 ESE 10 17 1016.9 - 0.0 - - - - - - -
28/08:00am 17.8 E 7 11 1016.7 - 0.0 - - - - - - -
28/07:30am 17.4 E 9 16 1016.2 - 0.0 - - - - - - -
28/07:00am 17.4 E 8 15 1015.7 - 0.0 - - - - - - -
28/06:30am 17.2 E 9 13 1015.6 - 0.0 - - - - - - -
28/06:00am 17.2 E 7 12 1015.7 - 0.0 - - - - - - -
28/05:30am 17.8 E 9 14 1015.6 - 0.0 - - - - - - -
28/05:00am 17.6 ESE 9 15 1015.4 - 0.0 - - - - - - -

Other Formats:

Comma delimited format used in spreadsheet applications
http://www.bom.gov.au/fwo/IDS60701/IDS60701.94647.axf

JavaScript Object Notation format (JSON) in row-major order
http://www.bom.gov.au/fwo/IDS60701/IDS60701.94647.json